1982 IRVING (1982248N14133)


On this page: IBTrACS data - Map and Plots - Positions - Intensities - Original source data

Summary

Start Sep 4
End Sep 16
Basin WP
LMI 90 kt
Sources jtwc_wp
tokyo
cma
hko
td9636
In WMO? Yes
Previous storm 1982 JUDY (WP)
Previous in basin 1982 JUDY (WP)
Concurrent storms 1982 GORDON (WP)
1982 BERYL (NA)
1982 MIRIAM (EP)
1982 HOPE (WP)
1982 JUDY (WP)
1982 IRVING (WP)
1982 MISSING (NA)
1982 CHRIS (NA)
1982 NORMAN (EP)
1982 MISSING (EP)
1982 KEN (WP)
1982 LOLA (WP)
1982 DEBBY (NA)
1982 HANA (EP)
1982 EMA (EP)
Next in basin 1982 KEN (WP)
Next storm 1982 MISSING (NA)

top of page IBTrACS Data: File Access

top of page HURSAT Data: File Access

Image of storm

top of page Plots:

Map of storm track will not appear if FTP is down
Time series of cyclone Maximum Sustained Wind will not appear if FTP is down
Time series of cyclone Minimum Central Pressure will not appear if FTP is down

top of page Track Data:Position

jtwc_wp tokyo cma hko td9636
Date Lat Lon Lat Lon Lat Lon Lat Lon Lat Lon
1982-09-04 18:00:00 13.8 133.3 13.8 133.3
1982-09-05 00:00:00 12.9 132.8 12.9 132.8
1982-09-05 06:00:00 13.2 132.2 13.3 132.2 13.3 132.2 13.3 132.1 13.1 132.2
1982-09-05 12:00:00 13.7 131.4 13.6 131.3 13.5 131.5 13.7 131.3 13.7 131.4
1982-09-05 18:00:00 14.1 130.7 14.0 130.4 13.6 129.7 14.1 130.5 14.1 130.5
1982-09-06 00:00:00 14.2 129.6 14.3 129.5 13.8 129.2 14.2 129.5 14.2 129.6
1982-09-06 06:00:00 13.7 128.7 13.9 128.8 13.7 128.6 13.9 128.9 13.8 128.8
1982-09-06 12:00:00 13.2 128.1 13.4 128.2 13.5 128.1 13.5 128.3 13.2 128.1
1982-09-06 18:00:00 13.2 127.7 13.2 127.5 13.3 127.5 13.2 127.6 13.0 127.6
1982-09-07 00:00:00 12.9 127.1 13.2 127.0 13.2 127.0 13.0 126.9 12.9 127.1
1982-09-07 06:00:00 12.9 126.5 13.0 126.5 13.1 126.5 13.0 126.5 12.9 126.6
1982-09-07 12:00:00 12.9 126.1 13.0 126.2 13.0 126.1 13.0 126.1 12.9 126.1
1982-09-07 18:00:00 13.0 125.7 13.1 125.7 13.0 125.6 13.0 125.7 12.9 125.7
1982-09-08 00:00:00 13.0 125.2 13.1 125.2 13.1 125.1 13.1 125.1 13.0 125.2
1982-09-08 06:00:00 13.1 124.4 13.1 124.6 13.1 124.2 13.1 124.6 13.1 124.5
1982-09-08 12:00:00 13.2 123.8 13.0 124.0 13.2 123.8 13.2 124.0 13.2 123.8
1982-09-08 18:00:00 13.2 123.1 13.2 122.8 13.4 123.0 13.3 123.1 13.4 123.1
1982-09-09 00:00:00 13.6 122.4 13.3 121.5 13.5 122.3 13.5 122.2 13.6 122.4
1982-09-09 06:00:00 13.8 121.8 13.7 120.9 13.8 121.6 13.8 121.4 13.9 121.7
1982-09-09 12:00:00 14.2 120.9 14.1 120.3 14.4 120.5 14.1 120.6 14.2 120.9
1982-09-09 18:00:00 14.5 120.1 14.5 119.7 14.7 119.7 14.5 119.8 14.6 120.1
1982-09-10 00:00:00 14.9 119.2 14.9 119.1 14.9 119.0 14.9 118.9 14.9 119.2
1982-09-10 06:00:00 15.1 118.3 15.1 118.3 15.1 118.2 15.1 118.1 15.1 118.3
1982-09-10 12:00:00 15.2 117.5 15.3 117.5 15.4 117.5 15.2 117.3 15.2 117.5
1982-09-10 18:00:00 15.2 116.7 15.6 116.8 15.5 116.8 15.4 116.7 15.2 116.6
jtwc_wp tokyo cma hko td9636
1982-09-11 00:00:00 15.3 115.9 15.8 115.9 15.7 116.2 15.6 116.0 15.3 115.9
1982-09-11 06:00:00 15.5 115.4 15.9 115.5 15.9 115.6 15.7 115.5 15.5 115.3
1982-09-11 12:00:00 15.8 114.9 16.0 115.0 16.0 115.1 15.9 115.0 15.8 114.9
1982-09-11 18:00:00 16.2 114.5 16.1 114.6 16.3 114.7 16.2 114.6 16.1 114.6
1982-09-12 00:00:00 16.4 114.3 16.3 114.1 16.4 114.1 16.5 114.2 16.4 114.3
1982-09-12 06:00:00 16.7 114.0 16.5 113.9 16.8 113.9 16.8 113.9 16.7 114.1
1982-09-12 12:00:00 17.0 113.8 17.2 113.6 17.1 113.5 17.2 113.6 17.0 113.8
1982-09-12 18:00:00 17.4 113.4 17.4 113.3 17.4 113.3 17.5 113.3 17.4 113.5
1982-09-13 00:00:00 17.7 113.2 17.6 113.1 17.7 113.1 17.7 113.1 17.7 113.2
1982-09-13 06:00:00 18.0 113.1 18.0 112.9 18.0 112.8 18.1 112.9 18.0 113.0
1982-09-13 12:00:00 18.3 112.8 18.5 112.6 18.5 112.6 18.5 112.6 18.3 112.8
1982-09-13 18:00:00 18.7 112.5 18.9 112.3 18.9 112.4 18.9 112.3 18.6 112.5
1982-09-14 00:00:00 19.0 112.2 19.2 112.1 19.2 112.1 19.3 112.1 19.0 112.2
1982-09-14 06:00:00 19.4 111.9 19.7 112.0 19.5 112.0 19.6 111.9 19.5 111.9
1982-09-14 12:00:00 19.9 111.5 20.0 111.7 19.7 111.4 19.9 111.6 19.9 111.5
1982-09-14 18:00:00 20.1 111.1 20.2 111.2 20.1 110.8 20.2 111.0 20.1 110.9
1982-09-15 00:00:00 20.4 110.2 20.5 110.2 20.4 110.2 20.5 110.2 20.4 110.2
1982-09-15 06:00:00 20.9 109.6 20.8 109.5 20.7 109.5 20.7 109.4 20.8 109.5
1982-09-15 12:00:00 21.3 108.8 21.2 108.7 21.3 108.8 21.4 108.8 21.3 108.8
1982-09-15 18:00:00 21.7 107.9 21.5 107.8 21.5 107.9 21.6 107.9 21.6 107.9
1982-09-16 00:00:00 21.8 107.0 21.7 107.0 22.0 107.4 21.7 107.3 21.8 107.0
1982-09-16 06:00:00 22.3 106.8 22.0 106.7
1982-09-16 12:00:00 23.0 107.0

top of pageTrack Data:Intensity

jtwc_wp tokyo cma hko td9636
Date Wind Pres Wind Pres Wind Pres Wind Pres Wind Pres
1982-09-04 18:00:00 25. 25.
1982-09-05 00:00:00 25. 25.
1982-09-05 06:00:00 30. 1000. 29. 1000. 30. 999. 25.
1982-09-05 12:00:00 30. 998. 29. 1000. 30. 999. 30.
1982-09-05 18:00:00 30. 35. 996. 29. 1000. 30. 999. 30.
1982-09-06 00:00:00 35. 35. 996. 29. 998. 30. 999. 35.
1982-09-06 06:00:00 35. 40. 996. 39. 996. 40. 995. 35.
1982-09-06 12:00:00 40. 40. 996. 39. 994. 45. 995. 40.
1982-09-06 18:00:00 45. 40. 996. 49. 990. 50. 990. 40.
1982-09-07 00:00:00 50. 40. 996. 49. 990. 50. 990. 50.
1982-09-07 06:00:00 55. 40. 990. 49. 985. 55. 985. 50.
1982-09-07 12:00:00 60. 55. 985. 58. 985. 55. 985. 60.
1982-09-07 18:00:00 60. 55. 985. 58. 985. 55. 985. 60.
1982-09-08 00:00:00 60. 55. 985. 58. 983. 60. 980. 60.
1982-09-08 06:00:00 60. 55. 985. 58. 983. 60. 980. 60.
1982-09-08 12:00:00 55. 50. 985. 58. 983. 60. 980. 55.
1982-09-08 18:00:00 50. 50. 985. 49. 986. 60. 980. 55.
1982-09-09 00:00:00 50. 50. 985. 49. 986. 55. 985. 50.
1982-09-09 06:00:00 50. 45. 990. 49. 986. 50. 985. 50.
1982-09-09 12:00:00 50. 45. 990. 49. 990. 45. 990. 50.
1982-09-09 18:00:00 50. 45. 990. 49. 990. 45. 990. 50.
1982-09-10 00:00:00 50. 45. 990. 49. 990. 45. 990. 50.
1982-09-10 06:00:00 50. 50. 985. 49. 984. 50. 985. 50.
1982-09-10 12:00:00 55. 50. 980. 58. 980. 55. 985. 55.
1982-09-10 18:00:00 60. 55. 980. 58. 980. 60. 980. 55.
jtwc_wp tokyo cma hko td9636
1982-09-11 00:00:00 65. 55. 980. 58. 980. 60. 980. 65.
1982-09-11 06:00:00 65. 55. 975. 58. 975. 60. 980. 65.
1982-09-11 12:00:00 70. 55. 965. 58. 975. 65. 975. 70.
1982-09-11 18:00:00 75. 60. 960. 68. 970. 75. 965. 70.
1982-09-12 00:00:00 80. 60. 955. 68. 960. 80. 955. 80.
1982-09-12 06:00:00 90. 70. 950. 78. 947. 90. 947. 80.
1982-09-12 12:00:00 90. 85. 950. 78. 950. 90. 947. 90.
1982-09-12 18:00:00 90. 80. 955. 78. 955. 85. 950. 90.
1982-09-13 00:00:00 85. 80. 955. 78. 955. 85. 950. 85.
1982-09-13 06:00:00 80. 80. 955. 78. 955. 80. 955. 85.
1982-09-13 12:00:00 75. 75. 960. 78. 960. 80. 955. 75.
1982-09-13 18:00:00 75. 70. 965. 78. 960. 75. 960. 75.
1982-09-14 00:00:00 70. 65. 970. 78. 960. 70. 965. 70.
1982-09-14 06:00:00 70. 65. 970. 78. 960. 70. 965. 70.
1982-09-14 12:00:00 65. 65. 975. 78. 960. 70. 965. 65.
1982-09-14 18:00:00 65. 65. 975. 78. 960. 70. 965. 65.
1982-09-15 00:00:00 60. 55. 980. 68. 965. 70. 965. 60.
1982-09-15 06:00:00 60. 55. 980. 78. 970. 70. 965. 60.
1982-09-15 12:00:00 60. 55. 980. 78. 975. 65. 970. 60.
1982-09-15 18:00:00 55. 45. 985. 58. 980. 55. 980. 60.
1982-09-16 00:00:00 45. 40. 990. 29. 995. 45. 990. 45.
1982-09-16 06:00:00 1000. 30. 1000.
1982-09-16 12:00:00 1008.

top of page Links to source data

Source Source file Format
jtwc_wp bwp181982.txt ATCF
tokyo bst_all.txt:Line=31421:IRVING:8217 JMA text table
cma CH1982BST.txt:Storm=19:Irving CMA text table
hko tc-besttrack-data-current.txt:Line=15421:IRVING HKO Text table
td9636 cons_worldwide_trop_cyclone_18710101-19891231-003:Line=28287 TD 9636